Grafton, WI (53024)

11:07 AM CDT on September 26, 2016 (GMT -0500)
SE Grafton | | Change Station

Elev 750 ft 43.31 °N, 87.94 °W | Updated 30 seconds ago

Clear
Clear
63.9 °F
Feels Like 63.9 °F
N
13.0
Wind Variable Wind from West

Today
High -- | Low -- °F
--% Chance of Precip.
Yesterday
High -- | Low -- °F
Precip. -- in
Pressure 29.88 in
Visibility 10.0 miles
Clouds Clear
Dew Point 37 °F
Humidity 37%
Rainfall 0.00 in
Snow Depth Not available.
6:44 AM 6:40 PM
Waning Crescent, 18% visible
METAR KETB 261555Z AUTO 27018G23KT 240V300 10SM CLR 16/06 A2988 RMK AO2
Pressure 29.88 in
Visibility 10.0 miles
Clouds Clear
Dew Point 37 °F
Humidity 37%
Rainfall 0.00 in
Snow Depth Not available.
6:44 AM 6:40 PM
Waning Crescent, 18% visible
METAR KETB 261555Z AUTO 27018G23KT 240V300 10SM CLR 16/06 A2988 RMK AO2

10-Day Weather Forecast

Almanac

Astronomy

Sep. 26, 2016 Rise Set
Actual Time
Civil Twilight
Nautical Twilight
Astronomical Twilight
Moon
Length of Visible Light
Length of Day
Tomorrow will be .
, % of the Moon is Illuminated

Today's Extremes

State Highs State Lows

Community

WunderPhotos

Upload Photos

1,941,908 photos uploaded!

WunderBlog® & News

Nearby

Air Quality

  Air Quality AQ Index Pollutant
Not available.

Snow Depth

Station Depth Elevation

Earthquake Activity

City Distance Mag. Time & Date
Minimum magnitude displayed is 2.5.

Coastal Water Temperatures

Place Temperature

Stations

Nearby Weather Stations

Station Location Temp. Windchill Dew Point Humidity Wind Precip. Elev Updated Type
                   

Watches & Warnings

There are currently no watches in effect.